CheckWX is a tool to help pilots better visualize weather data.  It is not intended as a substitute for an official pre-flight weather briefing.

11:49:32 UTC

KGYB METAR
Giddings-Lee County Airport
Giddings, Texas, USA
Current

15 mins ago

KGYB 261135Z AUTO 15005KT 5SM BR CLR 24/23 A3004 RMK AO2 T02350232
Observed
May-26 @ 11:35 UTC
Wind
  • 150° at 5 KTS
Visibility
5 SM
Flight Rules
MVFR
Conditions
Mist
Cloud Levels
  • Clear skies
Temperature
24°C / 75°F
Dewpoint
23°C / 73°F
Humidity
94%
Altimeter
30.04" Hg
Pressure
1017.32 hPa
Previous

35 mins ago

KGYB 261115Z AUTO 16004KT 5SM BR SCT006 SCT009 24/23 A3004 RMK AO2 T02360233
Observed
May-26 @ 11:15 UTC
Wind
  • 160° at 4 KTS
Visibility
5 SM
Flight Rules
MVFR
Conditions
Mist
Cloud Levels
  • Scattered at 600' AGL
  • Scattered at 900' AGL
Temperature
24°C / 75°F
Dewpoint
23°C / 73°F
Humidity
94%
Altimeter
30.04" Hg
Pressure
1017.32 hPa
Previous

55 mins ago

KGYB 261055Z AUTO 16006KT 5SM BR SCT006 24/24 A3004 RMK AO2 T02380235
Observed
May-26 @ 10:55 UTC
Wind
  • 160° at 6 KTS
Visibility
5 SM
Flight Rules
MVFR
Conditions
Mist
Cloud Levels
  • Scattered at 600' AGL
Temperature
24°C / 75°F
Dewpoint
24°C / 75°F
Humidity
100%
Altimeter
30.04" Hg
Pressure
1017.32 hPa